Time;durP1;ratioP1;P1;durP2;ratioP2;P2;SDS_P1;SDS_P2;PMS_P1;PMS_P2;Temp;Humidity;BMP_temperature;BMP_pressure;BME280_temperature;BME280_humidity;BME280_pressure;Samples;Min_cycle;Max_cycle;Signal;HPM_P1;HPM_P2
2022/07/14 00:01:39;;;;;;;2.30;1.70;;;23.90;57.60;;;;;;4981945;28;20405;-71
2022/07/14 00:04:06;;;;;;;1.70;1.60;;;23.90;57.60;;;;;;4979904;28;20399;-67
2022/07/14 00:06:32;;;;;;;2.20;1.60;;;23.90;58.20;;;;;;4980827;28;20438;-66
2022/07/14 00:08:58;;;;;;;1.70;1.50;;;23.90;57.60;;;;;;4981967;28;20424;-66
2022/07/14 00:11:23;;;;;;;1.80;1.63;;;23.90;57.60;;;;;;4989031;28;20426;-68
2022/07/14 00:13:49;;;;;;;1.67;1.57;;;23.90;57.60;;;;;;4987353;28;20397;-66
2022/07/14 00:16:14;;;;;;;1.95;1.60;;;23.90;57.60;;;;;;4987797;28;20392;-65
2022/07/14 00:18:43;;;;;;;2.80;1.50;;;23.90;57.50;;;;;;4986020;28;20807;-67
2022/07/14 00:21:10;;;;;;;1.83;1.70;;;23.90;57.50;;;;;;4987143;28;20399;-66
2022/07/14 00:23:35;;;;;;;1.88;1.77;;;23.90;57.50;;;;;;4986562;28;20513;-66
2022/07/14 00:26:03;;;;;;;1.80;1.70;;;23.90;57.50;;;;;;4985743;28;20500;-66
2022/07/14 00:28:29;;;;;;;1.70;1.60;;;23.90;57.50;;;;;;4988927;28;20891;-66
2022/07/14 00:30:55;;;;;;;2.40;1.70;;;23.90;57.50;;;;;;4985423;28;20505;-67
2022/07/14 00:33:21;;;;;;;2.00;1.80;;;23.90;57.50;;;;;;4986992;28;20413;-66
2022/07/14 00:35:47;;;;;;;1.70;1.60;;;23.80;57.40;;;;;;4987955;28;20551;-70
2022/07/14 00:38:12;;;;;;;2.27;1.90;;;23.80;57.40;;;;;;4988070;28;20922;-65
2022/07/14 00:40:38;;;;;;;2.08;1.70;;;23.90;57.50;;;;;;4988236;28;20894;-66
2022/07/14 00:43:04;;;;;;;2.22;1.85;;;23.80;57.40;;;;;;5017492;28;20839;-67
2022/07/14 00:45:30;;;;;;;2.60;1.80;;;23.90;57.40;;;;;;4984421;28;20419;-67
2022/07/14 00:47:55;;;;;;;1.60;1.45;;;23.90;57.50;;;;;;4986315;28;20501;-66
2022/07/14 00:50:23;;;;;;;2.45;1.50;;;23.90;57.40;;;;;;4987720;28;20460;-68
2022/07/14 00:52:50;;;;;;;1.67;1.50;;;23.80;57.30;;;;;;4985735;28;20416;-65
2022/07/14 00:55:17;;;;;;;1.98;1.80;;;23.80;57.30;;;;;;4986334;28;20457;-68
2022/07/14 00:57:43;;;;;;;2.08;1.60;;;23.90;57.40;;;;;;4986072;28;20392;-66
2022/07/14 01:00:14;;;;;;;1.50;1.40;;;23.90;57.40;;;;;;4985514;28;20413;-66
2022/07/14 01:02:42;;;;;;;1.60;1.50;;;23.80;57.40;;;;;;4988005;28;20477;-65
2022/07/14 01:05:08;;;;;;;1.90;1.60;;;23.80;57.30;;;;;;4985212;28;20982;-65
2022/07/14 01:07:34;;;;;;;1.95;1.70;;;23.80;57.40;;;;;;4988053;28;20430;-66
2022/07/14 01:09:59;;;;;;;1.80;1.50;;;23.80;57.40;;;;;;4983830;28;20396;-65
2022/07/14 01:12:25;;;;;;;2.75;1.65;;;23.80;57.30;;;;;;4987684;28;20409;-65
2022/07/14 01:14:51;;;;;;;2.27;1.77;;;23.80;57.30;;;;;;4984076;28;21015;-68
2022/07/14 01:17:17;;;;;;;2.10;1.80;;;23.80;57.40;;;;;;4988041;28;20817;-66
2022/07/14 01:19:43;;;;;;;1.90;1.70;;;23.80;57.40;;;;;;4986521;28;20399;-65
2022/07/14 01:22:09;;;;;;;2.33;1.58;;;23.80;57.40;;;;;;4981861;28;20471;-66
2022/07/14 01:24:35;;;;;;;2.38;1.65;;;23.80;57.40;;;;;;4981691;28;20414;-66
2022/07/14 01:27:01;;;;;;;1.92;1.40;;;23.80;57.40;;;;;;4987169;28;20457;-67
2022/07/14 01:29:28;;;;;;;1.73;1.50;;;23.80;57.40;;;;;;4983141;28;20392;-66
2022/07/14 01:31:54;;;;;;;2.03;1.60;;;23.80;57.40;;;;;;4981788;28;20449;-65
2022/07/14 01:34:20;;;;;;;2.17;1.60;;;23.80;57.50;;;;;;4984450;28;20422;-66
2022/07/14 01:36:45;;;;;;;1.85;1.70;;;23.80;57.50;;;;;;4981950;28;20394;-65
2022/07/14 01:39:12;;;;;;;1.55;1.40;;;23.80;57.50;;;;;;4998551;28;20424;-67
2022/07/14 01:41:38;;;;;;;1.70;1.60;;;23.80;57.50;;;;;;4982884;28;20396;-65
2022/07/14 01:44:03;;;;;;;1.73;1.33;;;23.80;57.50;;;;;;4981861;28;20407;-67
2022/07/14 01:46:30;;;;;;;1.65;1.55;;;23.80;57.40;;;;;;4983436;28;20445;-65
2022/07/14 01:48:55;;;;;;;1.80;1.48;;;23.80;57.40;;;;;;4981749;28;20393;-66
2022/07/14 01:51:21;;;;;;;1.70;1.60;;;23.80;58.00;;;;;;4984757;28;20396;-65
2022/07/14 01:53:48;;;;;;;1.80;1.70;;;23.80;57.40;;;;;;4983846;28;20402;-67
2022/07/14 01:56:13;;;;;;;1.83;1.70;;;23.80;57.40;;;;;;4981215;28;20402;-69
2022/07/14 01:58:39;;;;;;;2.00;1.80;;;23.80;57.40;;;;;;4986878;28;20395;-72
2022/07/14 02:03:55;;;;;;;1.50;1.40;;;23.80;57.40;;;;;;4984839;28;20523;-66
2022/07/14 02:06:21;;;;;;;1.70;1.60;;;23.80;57.30;;;;;;4980401;28;20518;-65
2022/07/14 02:08:46;;;;;;;1.70;1.60;;;23.80;57.30;;;;;;4984673;28;20878;-67
2022/07/14 02:14:16;;;;;;;1.70;1.40;;;23.70;57.20;;;;;;4960299;28;20475;-67
2022/07/14 02:16:42;;;;;;;2.30;1.60;;;23.70;57.30;;;;;;4943714;28;20481;-65
2022/07/14 02:19:08;;;;;;;1.70;1.50;;;23.70;57.20;;;;;;4973824;28;20447;-66
2022/07/14 02:21:33;;;;;;;1.77;1.67;;;23.80;57.30;;;;;;4981310;28;20456;-66
2022/07/14 02:23:59;;;;;;;1.87;1.67;;;23.80;57.30;;;;;;4983251;28;20730;-66
2022/07/14 02:26:26;;;;;;;2.00;1.80;;;23.70;57.20;;;;;;4980524;28;20422;-65
2022/07/14 02:28:53;;;;;;;1.67;1.52;;;23.70;57.20;;;;;;4981120;28;20889;-65
2022/07/14 02:31:18;;;;;;;1.60;1.50;;;23.70;57.20;;;;;;4979647;28;20398;-66
2022/07/14 02:33:45;;;;;;;1.70;1.50;;;23.70;57.20;;;;;;5012696;28;20777;-71
2022/07/14 02:36:11;;;;;;;1.50;1.40;;;23.70;57.20;;;;;;4982090;28;21246;-65
2022/07/14 02:38:37;;;;;;;1.70;1.60;;;23.70;57.20;;;;;;4981995;28;20415;-66
2022/07/14 02:41:04;;;;;;;1.57;1.47;;;23.70;57.10;;;;;;4981348;28;20897;-66
2022/07/14 02:43:31;;;;;;;1.60;1.40;;;23.70;57.20;;;;;;4981383;28;20475;-65
2022/07/14 02:45:58;;;;;;;1.77;1.40;;;23.70;57.20;;;;;;4980146;28;20893;-67
2022/07/14 02:48:24;;;;;;;1.57;1.33;;;23.70;57.20;;;;;;4983116;28;20950;-65
2022/07/14 02:50:49;;;;;;;1.88;1.67;;;23.70;57.10;;;;;;4983239;28;20387;-67
2022/07/14 02:53:15;;;;;;;1.60;1.50;;;23.70;57.10;;;;;;4981193;28;20486;-67
2022/07/14 02:55:40;;;;;;;2.05;1.60;;;23.70;57.10;;;;;;4980923;28;20862;-66
2022/07/14 02:58:06;;;;;;;1.77;1.43;;;23.70;57.10;;;;;;4983235;28;20400;-72
2022/07/14 03:00:32;;;;;;;1.70;1.60;;;23.70;57.10;;;;;;4980743;28;20398;-67
2022/07/14 03:03:00;;;;;;;1.70;1.60;;;23.70;57.70;;;;;;4981453;28;20404;-67
2022/07/14 03:05:27;;;;;;;1.67;1.42;;;23.70;57.10;;;;;;4983160;28;20395;-67
2022/07/14 03:07:52;;;;;;;3.10;1.50;;;23.70;57.10;;;;;;4981948;28;20400;-66
2022/07/14 03:10:18;;;;;;;2.20;1.40;;;23.70;57.50;;;;;;4995634;28;20796;-70
2022/07/14 03:12:44;;;;;;;6.70;4.10;;;23.70;57.70;;;;;;4979462;28;20428;-65
2022/07/14 03:15:10;;;;;;;4.32;2.67;;;23.70;59.10;;;;;;4981896;28;20401;-66
2022/07/14 03:17:38;;;;;;;7.32;3.30;;;23.70;58.50;;;;;;4981558;28;20408;-71
2022/07/14 03:20:06;;;;;;;5.57;2.87;;;23.80;60.90;;;;;;4979213;28;20407;-66
2022/07/14 03:22:32;;;;;;;3.97;2.50;;;23.80;60.60;;;;;;4982152;28;20438;-66
2022/07/14 03:24:58;;;;;;;3.88;2.38;;;23.90;60.80;;;;;;4981722;28;20491;-66
2022/07/14 03:27:25;;;;;;;5.10;2.42;;;23.90;60.70;;;;;;4979985;28;20414;-70
2022/07/14 03:29:51;;;;;;;3.90;2.30;;;23.90;60.70;;;;;;4981861;28;20900;-65
2022/07/14 03:32:17;;;;;;;4.25;2.25;;;24.00;61.00;;;;;;4980601;28;20407;-68
2022/07/14 03:34:42;;;;;;;4.07;2.33;;;23.90;61.40;;;;;;4982762;28;20776;-72
2022/07/14 03:37:09;;;;;;;4.68;2.30;;;23.90;60.70;;;;;;4979109;28;20401;-72
2022/07/14 03:39:35;;;;;;;3.90;1.90;;;23.90;61.40;;;;;;4982327;28;20405;-68
2022/07/14 03:42:01;;;;;;;4.47;2.17;;;23.90;60.90;;;;;;4982262;28;20876;-67
2022/07/14 03:44:26;;;;;;;6.07;2.25;;;24.00;61.10;;;;;;4979617;28;20407;-69
2022/07/14 03:46:52;;;;;;;7.27;2.13;;;24.00;61.00;;;;;;4982402;28;20431;-68
2022/07/14 03:49:18;;;;;;;5.40;2.20;;;24.00;61.50;;;;;;4978651;28;20416;-67
2022/07/14 03:51:44;;;;;;;6.25;2.13;;;24.00;61.60;;;;;;4982786;28;20457;-67
2022/07/14 03:54:10;;;;;;;5.30;1.93;;;24.00;61.10;;;;;;4982750;28;20411;-67
2022/07/14 03:56:37;;;;;;;4.13;1.67;;;24.10;61.60;;;;;;4978007;28;20417;-69
2022/07/14 03:59:04;;;;;;;3.80;1.77;;;24.10;60.70;;;;;;4982428;28;20424;-67
2022/07/14 04:01:29;;;;;;;3.85;1.90;;;24.00;60.50;;;;;;4982235;28;20396;-67
2022/07/14 04:03:55;;;;;;;5.27;1.80;;;24.10;60.40;;;;;;4980398;28;20482;-67
2022/07/14 04:06:21;;;;;;;4.47;1.73;;;24.00;59.80;;;;;;4980279;28;20430;-68
2022/07/14 04:08:47;;;;;;;5.97;1.90;;;24.00;59.40;;;;;;4979446;28;20459;-67
2022/07/14 04:11:13;;;;;;;5.57;1.75;;;24.00;59.60;;;;;;4979328;28;20395;-66
2022/07/14 04:13:39;;;;;;;8.43;1.88;;;24.00;59.20;;;;;;4981699;28;20391;-67
2022/07/14 04:16:05;;;;;;;7.60;1.70;;;23.90;59.10;;;;;;4979912;28;20806;-64
2022/07/14 04:18:30;;;;;;;5.68;1.90;;;23.90;59.00;;;;;;4978907;28;20404;-67
2022/07/14 04:20:56;;;;;;;8.43;2.30;;;23.90;57.90;;;;;;4981698;28;20405;-69
2022/07/14 04:23:22;;;;;;;6.15;1.88;;;23.90;57.90;;;;;;4979747;28;20778;-67
2022/07/14 04:25:48;;;;;;;4.70;1.70;;;23.90;57.90;;;;;;4982578;28;20410;-67
2022/07/14 04:28:15;;;;;;;4.67;1.70;;;23.80;56.90;;;;;;4982091;28;20408;-67
2022/07/14 04:30:41;;;;;;;4.82;1.80;;;23.80;56.40;;;;;;4981771;28;20382;-66
2022/07/14 04:33:07;;;;;;;4.78;1.88;;;23.80;56.50;;;;;;4980576;28;20404;-70
2022/07/14 04:35:33;;;;;;;6.45;1.73;;;23.80;56.70;;;;;;4978815;28;20399;-68
2022/07/14 04:37:59;;;;;;;6.77;3.40;;;23.80;56.80;;;;;;4983864;28;20903;-66
2022/07/14 04:40:24;;;;;;;6.20;3.88;;;23.80;57.50;;;;;;4972144;28;20548;-66
2022/07/14 04:42:50;;;;;;;5.17;2.70;;;23.90;58.60;;;;;;4971051;28;20406;-67
2022/07/14 04:45:16;;;;;;;3.72;2.28;;;23.80;58.00;;;;;;4975835;28;20494;-66
2022/07/14 04:47:41;;;;;;;4.13;2.10;;;23.90;57.70;;;;;;4990358;28;20426;-67
2022/07/14 04:52:52;;;;;;;3.08;2.10;;;23.90;57.50;;;;;;4991856;28;20397;-66
2022/07/14 04:55:19;;;;;;;3.35;2.20;;;23.90;57.60;;;;;;5003541;28;20857;-66
2022/07/14 04:57:44;;;;;;;5.28;2.00;;;23.90;57.70;;;;;;4974381;28;20392;-66
2022/07/14 05:00:11;;;;;;;5.43;2.00;;;23.90;57.40;;;;;;4975700;28;20412;-66
2022/07/14 05:02:37;;;;;;;3.83;1.90;;;23.90;57.60;;;;;;4974214;28;20392;-72
2022/07/14 05:05:04;;;;;;;4.47;1.70;;;23.90;57.50;;;;;;4975607;28;20403;-67
2022/07/14 05:07:30;;;;;;;3.53;1.80;;;23.80;57.30;;;;;;4975706;28;20427;-66
2022/07/14 05:09:56;;;;;;;3.03;1.70;;;23.90;57.40;;;;;;4975538;28;20411;-65
2022/07/14 05:12:22;;;;;;;4.67;1.90;;;23.80;57.40;;;;;;4974923;28;20867;-65
2022/07/14 05:14:47;;;;;;;2.00;1.67;;;23.80;57.30;;;;;;4973943;28;20455;-64
2022/07/14 05:17:14;;;;;;;3.17;1.75;;;23.80;57.30;;;;;;4975422;28;20427;-65
2022/07/14 05:19:40;;;;;;;3.90;1.63;;;23.80;57.40;;;;;;4975357;28;20400;-66
2022/07/14 05:22:06;;;;;;;3.42;1.80;;;23.80;57.40;;;;;;4975031;28;20400;-70
2022/07/14 05:24:31;;;;;;;2.23;1.80;;;23.80;57.30;;;;;;4974697;28;20782;-65
2022/07/14 05:26:58;;;;;;;3.10;1.65;;;23.80;57.50;;;;;;4975241;28;20427;-64
2022/07/14 05:29:25;;;;;;;2.65;1.70;;;23.80;57.50;;;;;;4971943;28;20401;-64
2022/07/14 05:31:51;;;;;;;2.80;1.60;;;23.80;57.50;;;;;;4974913;28;20400;-65
2022/07/14 05:34:17;;;;;;;2.33;1.58;;;23.80;57.50;;;;;;4974517;28;20887;-65
2022/07/14 05:36:43;;;;;;;2.42;1.50;;;23.80;57.50;;;;;;4975171;28;20758;-65
2022/07/14 05:39:08;;;;;;;2.27;1.53;;;23.80;58.00;;;;;;4975017;28;20392;-66
2022/07/14 05:41:34;;;;;;;2.40;1.60;;;23.80;58.00;;;;;;4974653;28;20395;-64
2022/07/14 05:44:00;;;;;;;2.65;1.70;;;23.80;57.60;;;;;;4974723;28;20399;-64
2022/07/14 05:46:25;;;;;;;2.87;1.60;;;23.80;57.60;;;;;;4982807;28;20425;-64
2022/07/14 05:48:51;;;;;;;2.95;1.70;;;23.80;57.50;;;;;;4994241;28;20457;-65
2022/07/14 05:51:18;;;;;;;2.78;1.70;;;23.80;57.50;;;;;;4994197;28;20456;-64
2022/07/14 05:53:46;;;;;;;1.95;1.58;;;23.80;57.40;;;;;;4993935;28;20474;-64
2022/07/14 05:56:12;;;;;;;2.03;1.60;;;23.80;57.50;;;;;;4992299;28;20869;-66
2022/07/14 05:58:39;;;;;;;2.58;1.60;;;23.80;57.50;;;;;;4992711;28;20390;-66
2022/07/14 06:01:07;;;;;;;2.17;1.73;;;23.80;57.50;;;;;;4992624;28;20811;-66
2022/07/14 06:03:32;;;;;;;3.50;1.70;;;23.80;57.40;;;;;;4993742;28;20390;-64
2022/07/14 06:06:00;;;;;;;1.95;1.60;;;23.80;57.30;;;;;;4992528;28;20772;-65
2022/07/14 06:08:26;;;;;;;1.95;1.40;;;23.80;57.30;;;;;;4992909;28;20402;-65
2022/07/14 06:10:51;;;;;;;2.55;1.83;;;23.80;57.40;;;;;;4993765;28;20383;-64
2022/07/14 06:13:17;;;;;;;2.17;1.80;;;23.80;57.40;;;;;;4993755;28;20414;-64
2022/07/14 06:15:44;;;;;;;2.08;1.63;;;23.80;57.40;;;;;;4993552;28;20390;-64
2022/07/14 06:18:11;;;;;;;2.20;1.90;;;23.80;57.40;;;;;;4993209;28;20398;-64
2022/07/14 06:20:39;;;;;;;2.22;1.80;;;23.80;57.40;;;;;;4993114;28;20391;-66
2022/07/14 06:23:05;;;;;;;1.63;1.52;;;23.80;57.30;;;;;;4992147;28;20469;-65
2022/07/14 06:25:31;;;;;;;2.65;1.35;;;23.80;57.40;;;;;;4993303;28;20876;-64
2022/07/14 06:27:56;;;;;;;2.10;1.65;;;23.80;57.40;;;;;;4978090;28;21163;-64
2022/07/14 06:30:22;;;;;;;2.57;1.40;;;23.80;57.40;;;;;;4973401;28;20396;-64
2022/07/14 06:32:47;;;;;;;2.95;1.42;;;23.80;57.40;;;;;;4973480;28;20491;-64
2022/07/14 06:35:13;;;;;;;2.00;1.50;;;23.80;57.40;;;;;;4973698;28;20392;-64
2022/07/14 06:37:39;;;;;;;2.00;1.60;;;23.80;57.40;;;;;;4972380;28;20418;-65
2022/07/14 06:40:07;;;;;;;3.00;1.83;;;23.70;57.30;;;;;;4973422;28;20384;-65
2022/07/14 06:42:33;;;;;;;2.80;1.58;;;23.80;57.50;;;;;;4972973;28;20467;-65
2022/07/14 06:44:59;;;;;;;3.03;1.73;;;23.70;57.30;;;;;;4973291;28;20878;-65
2022/07/14 06:47:25;;;;;;;2.40;1.65;;;23.70;57.40;;;;;;4972192;28;20428;-65
2022/07/14 06:49:51;;;;;;;2.20;1.83;;;23.80;57.40;;;;;;4973427;28;20932;-65
2022/07/14 06:52:16;;;;;;;2.30;1.73;;;23.70;57.40;;;;;;4972898;28;20413;-65
2022/07/14 06:54:42;;;;;;;2.43;1.70;;;23.80;57.50;;;;;;4973559;28;20388;-65
2022/07/14 06:57:08;;;;;;;2.38;1.60;;;23.80;57.50;;;;;;4972276;28;20404;-65
2022/07/14 06:59:33;;;;;;;2.50;1.77;;;23.80;57.70;;;;;;4973321;28;20886;-65
2022/07/14 07:01:59;;;;;;;2.10;1.70;;;23.80;57.60;;;;;;4971916;28;20913;-66
2022/07/14 07:04:25;;;;;;;3.65;1.80;;;23.80;57.70;;;;;;4971204;28;20453;-65
2022/07/14 07:06:51;;;;;;;3.30;1.93;;;23.80;57.50;;;;;;4972967;28;20497;-64
2022/07/14 07:09:18;;;;;;;6.32;2.20;;;23.80;58.10;;;;;;4973268;28;20384;-64
2022/07/14 07:11:45;;;;;;;28.55;8.82;;;23.80;58.40;;;;;;4973014;28;20408;-64
2022/07/14 07:14:11;;;;;;;61.15;23.08;;;23.90;58.90;;;;;;4972869;28;20803;-64
2022/07/14 07:16:37;;;;;;;97.65;42.22;;;23.90;59.90;;;;;;4972553;28;20404;-64
2022/07/14 07:19:03;;;;;;;656.78;349.02;;;23.90;60.50;;;;;;4971752;28;20751;-64
2022/07/14 07:21:29;;;;;;;255.67;119.63;;;24.00;62.40;;;;;;4972170;28;20461;-65
2022/07/14 07:23:55;;;;;;;183.18;85.18;;;24.00;61.10;;;;;;4972906;28;20408;-64
2022/07/14 07:26:24;;;;;;;122.05;55.25;;;24.00;60.40;;;;;;4972351;28;20478;-64
2022/07/14 07:28:54;;;;;;;160.00;77.15;;;24.00;60.00;;;;;;4972453;28;20419;-65
2022/07/14 07:31:20;;;;;;;135.00;65.93;;;24.00;60.40;;;;;;4970653;28;20388;-65
2022/07/14 07:33:46;;;;;;;111.82;56.65;;;24.00;60.00;;;;;;4972630;28;20404;-64
2022/07/14 07:36:12;;;;;;;94.07;48.72;;;24.00;59.70;;;;;;4971991;28;20400;-64
2022/07/14 07:38:37;;;;;;;90.70;44.45;;;24.00;59.40;;;;;;4972360;28;20403;-64
2022/07/14 07:41:03;;;;;;;81.35;40.72;;;24.00;59.40;;;;;;4971424;28;20431;-64
2022/07/14 07:43:30;;;;;;;75.15;36.70;;;24.00;59.20;;;;;;4972671;28;20961;-65
2022/07/14 07:45:55;;;;;;;62.78;33.55;;;24.00;59.10;;;;;;4975114;28;20934;-70
2022/07/14 07:48:21;;;;;;;58.42;30.30;;;24.00;58.90;;;;;;4990225;28;20437;-65
2022/07/14 07:50:47;;;;;;;60.03;27.63;;;24.00;58.70;;;;;;4991677;28;20390;-65
2022/07/14 07:53:14;;;;;;;54.65;26.52;;;24.00;58.60;;;;;;4992017;28;20406;-69
2022/07/14 07:55:40;;;;;;;48.85;24.13;;;24.00;58.60;;;;;;4991754;28;20425;-64
2022/07/14 07:58:07;;;;;;;42.28;22.25;;;24.00;58.40;;;;;;4992050;28;20394;-65
2022/07/14 08:00:33;;;;;;;43.00;21.88;;;24.00;58.30;;;;;;4991164;28;20403;-66
2022/07/14 08:03:01;;;;;;;37.80;19.85;;;24.00;58.40;;;;;;5006810;28;20421;-65
2022/07/14 08:05:28;;;;;;;34.72;18.77;;;24.00;58.20;;;;;;4991426;28;20394;-65
2022/07/14 08:07:54;;;;;;;32.42;17.30;;;24.00;58.20;;;;;;4991884;28;20422;-65
2022/07/14 08:10:20;;;;;;;31.27;17.23;;;24.00;58.10;;;;;;4991409;28;20477;-65
2022/07/14 08:12:46;;;;;;;34.30;16.20;;;24.00;58.00;;;;;;4991588;28;20549;-65
2022/07/14 08:15:14;;;;;;;28.38;15.77;;;24.00;58.00;;;;;;4991809;28;20884;-64
2022/07/14 08:17:40;;;;;;;29.17;14.70;;;24.00;58.00;;;;;;4983751;28;20928;-65
2022/07/14 08:20:08;;;;;;;22.35;13.15;;;24.00;57.90;;;;;;4970705;28;20499;-64
2022/07/14 08:22:34;;;;;;;26.25;13.57;;;24.00;57.90;;;;;;4970932;28;20431;-64
2022/07/14 08:25:00;;;;;;;22.83;13.02;;;24.00;57.90;;;;;;4972467;28;20395;-64
2022/07/14 08:27:26;;;;;;;21.17;12.45;;;24.00;57.90;;;;;;4991362;28;20471;-65
2022/07/14 08:29:53;;;;;;;19.67;10.93;;;24.00;57.90;;;;;;4984229;28;21065;-65
2022/07/14 08:32:35;;;;;;;20.80;11.02;;;24.00;57.80;;;;;;4975232;28;20391;-65
2022/07/14 08:35:02;;;;;;;20.55;10.77;;;24.00;57.80;;;;;;4975982;28;20490;-64
2022/07/14 08:37:28;;;;;;;19.10;10.23;;;24.00;57.70;;;;;;4975898;28;20396;-64
2022/07/14 08:39:54;;;;;;;16.40;10.37;;;24.00;57.80;;;;;;4974513;28;20396;-64
2022/07/14 08:42:20;;;;;;;16.60;9.98;;;24.00;57.80;;;;;;4975608;28;20419;-64
2022/07/14 08:44:47;;;;;;;16.35;9.80;;;24.00;57.80;;;;;;4975764;28;20463;-64
2022/07/14 08:47:12;;;;;;;16.33;9.43;;;24.00;58.30;;;;;;4975799;28;20422;-65
2022/07/14 08:49:38;;;;;;;17.00;9.50;;;24.00;57.70;;;;;;4974337;28;20487;-64
2022/07/14 08:52:04;;;;;;;15.02;9.05;;;24.00;57.70;;;;;;4975797;28;20495;-65
2022/07/14 08:54:32;;;;;;;15.43;8.95;;;24.00;57.80;;;;;;4975184;28;20944;-64
2022/07/14 08:56:58;;;;;;;14.18;8.85;;;24.00;57.90;;;;;;4975540;28;20499;-64
2022/07/14 08:59:24;;;;;;;14.83;9.10;;;24.00;57.80;;;;;;4990927;28;20447;-64
2022/07/14 09:01:50;;;;;;;14.40;8.20;;;24.00;57.80;;;;;;4975678;28;20392;-64
2022/07/14 09:04:16;;;;;;;13.73;8.35;;;24.00;57.80;;;;;;4975184;28;20392;-64
2022/07/14 09:06:45;;;;;;;13.05;8.32;;;24.10;57.70;;;;;;4973480;28;20522;-64
2022/07/14 09:09:16;;;;;;;12.95;7.57;;;24.10;57.80;;;;;;4975571;28;20392;-64
2022/07/14 09:11:57;;;;;;;12.38;7.90;;;24.10;57.70;;;;;;4975715;28;20399;-64
2022/07/14 09:14:24;;;;;;;13.67;7.97;;;24.10;57.70;;;;;;4975133;28;20398;-66
2022/07/14 09:16:50;;;;;;;14.70;9.05;;;24.10;57.70;;;;;;4988539;28;20406;-65
2022/07/14 09:19:16;;;;;;;13.00;8.13;;;24.10;59.60;;;;;;4992780;28;20445;-66
2022/07/14 09:21:55;;;;;;;12.88;7.93;;;24.20;58.10;;;;;;4994910;28;20493;-66
2022/07/14 09:24:22;;;;;;;10.80;7.30;;;24.10;59.70;;;;;;4994680;28;20390;-63
2022/07/14 09:26:50;;;;;;;11.98;6.90;;;24.20;58.90;;;;;;4985791;28;20424;-65
2022/07/14 09:29:26;;;;;;;10.85;6.93;;;24.20;59.10;;;;;;4986141;28;20394;-64
2022/07/14 09:31:52;;;;;;;10.52;6.55;;;24.20;58.80;;;;;;4986678;28;20914;-64
2022/07/14 09:34:31;;;;;;;10.43;6.80;;;24.20;58.70;;;;;;4976786;28;20396;-68
2022/07/14 09:37:15;;;;;;;10.50;6.60;;;24.20;58.80;;;;;;4975163;28;20761;-64
2022/07/14 09:39:53;;;;;;;10.20;6.40;;;24.20;58.40;;;;;;4974628;28;20475;-64
2022/07/14 09:42:18;;;;;;;10.27;6.35;;;24.20;58.30;;;;;;4973949;28;20408;-64
2022/07/14 09:44:44;;;;;;;10.93;6.17;;;24.20;58.50;;;;;;4974615;28;20396;-64
2022/07/14 09:47:10;;;;;;;10.05;6.13;;;24.20;58.60;;;;;;4974739;28;20427;-64
2022/07/14 09:49:37;;;;;;;11.07;6.07;;;24.20;58.40;;;;;;4974779;28;20400;-64
2022/07/14 09:52:03;;;;;;;8.90;5.63;;;24.20;58.30;;;;;;4973731;28;20399;-64
2022/07/14 09:54:49;;;;;;;8.13;5.70;;;24.20;58.40;;;;;;4973071;28;20447;-64
2022/07/14 09:57:15;;;;;;;10.15;5.95;;;24.20;58.20;;;;;;4974830;28;20399;-64
2022/07/14 09:59:52;;;;;;;8.95;5.25;;;24.20;58.30;;;;;;4980343;28;20397;-64
2022/07/14 10:02:26;;;;;;;9.43;5.45;;;24.20;58.30;;;;;;4993780;28;20390;-63
2022/07/14 10:04:54;;;;;;;7.97;5.30;;;24.20;58.30;;;;;;4984503;28;20955;-64
2022/07/14 10:07:22;;;;;;;7.28;4.72;;;24.20;58.20;;;;;;4977497;28;20890;-64
2022/07/14 10:10:07;;;;;;;8.57;4.78;;;24.20;58.00;;;;;;4993919;28;20486;-64
2022/07/14 10:12:36;;;;;;;7.40;5.10;;;24.20;57.90;;;;;;4992335;28;20853;-63
2022/07/14 10:15:04;;;;;;;8.10;4.80;;;24.30;57.90;;;;;;4993989;28;20402;-64
2022/07/14 10:17:34;;;;;;;7.28;4.80;;;24.20;57.80;;;;;;4993907;28;20397;-63
2022/07/14 10:20:02;;;;;;;6.45;4.80;;;24.20;57.70;;;;;;4993901;28;20467;-64
2022/07/14 10:22:29;;;;;;;6.20;4.68;;;24.20;57.80;;;;;;4993394;28;20927;-64
2022/07/14 10:24:56;;;;;;;7.27;4.50;;;24.20;57.70;;;;;;4992652;28;20462;-64
2022/07/14 10:27:22;;;;;;;5.88;4.28;;;24.20;57.70;;;;;;4993619;28;20943;-64
2022/07/14 10:29:52;;;;;;;7.53;4.57;;;24.20;57.70;;;;;;4993679;28;20387;-64
2022/07/14 10:32:38;;;;;;;7.05;4.47;;;24.20;57.70;;;;;;4993318;28;20865;-64
2022/07/14 10:35:41;;;;;;;6.55;4.20;;;24.20;57.60;;;;;;4992355;28;20460;-64
2022/07/14 10:38:37;;;;;;;5.63;3.90;;;24.20;57.70;;;;;;4992191;28;20505;-64
2022/07/14 10:41:40;;;;;;;6.45;4.40;;;24.20;57.70;;;;;;4992651;28;20730;-64
2022/07/14 10:44:23;;;;;;;4.97;3.80;;;24.20;57.60;;;;;;4992173;28;20469;-64
2022/07/14 10:47:04;;;;;;;4.90;3.83;;;24.20;57.70;;;;;;4992797;28;20492;-64
2022/07/14 10:49:30;;;;;;;5.57;3.90;;;24.20;57.70;;;;;;4993290;28;20449;-64
2022/07/14 10:51:55;;;;;;;5.43;3.80;;;24.20;57.60;;;;;;4993080;28;20529;-64
2022/07/14 10:54:24;;;;;;;5.03;3.90;;;24.20;57.60;;;;;;4992569;28;20387;-64
2022/07/14 10:57:12;;;;;;;4.72;3.55;;;24.20;57.50;;;;;;4992301;28;20398;-65
2022/07/14 10:59:39;;;;;;;7.10;3.70;;;24.20;58.50;;;;;;4993600;28;20397;-65
2022/07/14 11:02:13;;;;;;;5.90;3.50;;;24.20;57.90;;;;;;4993165;28;20397;-65
2022/07/14 11:05:00;;;;;;;4.30;3.58;;;24.30;58.30;;;;;;4991323;28;20937;-65
2022/07/14 11:08:04;;;;;;;4.70;3.40;;;24.30;58.30;;;;;;4987362;28;20468;-64
2022/07/14 11:10:30;;;;;;;3.92;3.17;;;24.30;57.90;;;;;;4988457;28;20389;-64
2022/07/14 11:13:04;;;;;;;5.28;3.53;;;24.30;57.90;;;;;;4973160;28;20426;-63
2022/07/14 11:15:54;;;;;;;5.22;3.35;;;24.30;57.80;;;;;;4973096;28;20732;-64
2022/07/14 11:18:21;;;;;;;5.28;3.28;;;24.30;57.70;;;;;;4968911;28;20462;-63
2022/07/14 11:20:54;;;;;;;4.78;3.50;;;24.30;57.80;;;;;;4972741;28;20392;-63
2022/07/14 11:23:22;;;;;;;5.82;3.30;;;24.30;57.60;;;;;;4971568;28;20439;-64
2022/07/14 11:25:50;;;;;;;5.15;3.30;;;24.30;57.70;;;;;;4972277;28;20901;-64
2022/07/14 11:28:50;;;;;;;4.50;3.30;;;24.30;57.50;;;;;;4972377;28;20416;-64
2022/07/14 11:31:20;;;;;;;4.22;3.25;;;24.30;57.40;;;;;;4971625;28;20411;-63
2022/07/14 11:36:36;;;;;;;5.13;3.25;;;24.30;57.40;;;;;;4972592;28;20941;-64
2022/07/14 11:39:18;;;;;;;4.20;3.03;;;24.30;57.40;;;;;;4972744;28;20431;-64
2022/07/14 11:42:03;;;;;;;3.95;3.30;;;24.30;57.40;;;;;;4972557;28;20420;-64
2022/07/14 11:44:35;;;;;;;4.03;3.05;;;24.30;57.30;;;;;;4970995;28;20470;-63
2022/07/14 11:47:05;;;;;;;3.80;3.17;;;24.30;57.30;;;;;;4972386;28;20429;-64
2022/07/14 11:49:32;;;;;;;3.80;3.00;;;24.40;57.30;;;;;;4978666;28;20404;-67
2022/07/14 11:52:00;;;;;;;3.80;3.05;;;24.40;57.60;;;;;;4979607;28;20484;-64
2022/07/14 11:54:27;;;;;;;3.15;2.70;;;24.40;57.20;;;;;;4981701;28;20386;-64
2022/07/14 11:57:03;;;;;;;3.47;2.80;;;24.30;57.10;;;;;;4983070;28;20424;-64
2022/07/14 11:59:30;;;;;;;3.55;3.00;;;24.40;57.20;;;;;;4982458;28;20396;-64
2022/07/14 12:02:20;;;;;;;4.47;3.03;;;24.40;57.10;;;;;;4981298;28;20400;-64
2022/07/14 12:04:56;;;;;;;3.20;2.90;;;24.40;57.10;;;;;;4982793;28;20386;-64
2022/07/14 12:07:26;;;;;;;3.60;2.90;;;24.40;57.10;;;;;;4995401;28;20447;-65
2022/07/14 12:09:53;;;;;;;3.90;2.88;;;24.40;57.20;;;;;;4981053;28;20429;-65
2022/07/14 12:12:24;;;;;;;3.42;2.80;;;24.40;57.10;;;;;;4972328;28;20403;-63
2022/07/14 12:14:52;;;;;;;3.10;2.72;;;24.40;57.10;;;;;;4972118;28;20995;-69
2022/07/14 12:17:20;;;;;;;3.80;2.80;;;24.40;57.10;;;;;;4985806;28;20406;-63
2022/07/14 12:19:46;;;;;;;3.43;2.83;;;24.40;57.10;;;;;;4991757;28;20482;-63
2022/07/14 12:22:13;;;;;;;3.42;2.92;;;24.40;57.10;;;;;;4991644;28;20679;-64
2022/07/14 12:24:39;;;;;;;3.20;2.90;;;24.40;57.00;;;;;;4991269;28;20773;-63
2022/07/14 12:27:10;;;;;;;2.90;2.60;;;24.40;57.00;;;;;;4991085;28;20422;-66
2022/07/14 12:29:44;;;;;;;3.22;2.92;;;24.40;57.00;;;;;;4991454;28;20457;-68
2022/07/14 12:32:11;;;;;;;3.20;2.80;;;24.40;57.10;;;;;;4991603;28;20391;-65
2022/07/14 12:34:38;;;;;;;2.75;2.55;;;24.40;57.00;;;;;;4991253;28;20481;-65
2022/07/14 12:37:04;;;;;;;2.92;2.60;;;24.40;57.00;;;;;;4991489;28;20391;-65
2022/07/14 12:39:31;;;;;;;4.03;2.70;;;24.40;57.00;;;;;;4991397;28;20420;-64
2022/07/14 12:42:02;;;;;;;3.17;2.70;;;24.50;57.00;;;;;;4991739;28;20405;-64
2022/07/14 12:44:28;;;;;;;3.13;2.60;;;24.50;57.10;;;;;;4989968;28;20391;-64
2022/07/14 12:47:11;;;;;;;2.63;2.42;;;24.50;57.00;;;;;;4991029;28;20742;-64
2022/07/14 12:49:47;;;;;;;2.83;2.53;;;24.50;57.00;;;;;;4991396;28;20430;-63
2022/07/14 12:52:14;;;;;;;2.75;2.45;;;24.50;56.90;;;;;;4980947;28;20453;-64
2022/07/14 12:54:41;;;;;;;3.42;2.53;;;24.50;56.90;;;;;;4980645;28;20402;-65
2022/07/14 12:57:07;;;;;;;3.60;2.45;;;24.50;56.80;;;;;;4981168;28;20407;-66
2022/07/14 12:59:37;;;;;;;2.78;2.55;;;24.50;57.00;;;;;;4981691;28;20382;-65